Airfield :
LOGIN :

Register | Disclaimer

   EN    FR    IT 

 










Legend :    VFR   Marginal VFR   IFR   Intensive IFR   Very Intensive IFR
Visi :
Ceiling :
>= 8 km
>= 3000ft
5 to 8 km
1000 to 3000 ft
1500m to 5 km
500 to 1000 ft
800 to 1500m
200 to 500 ft
< 800m
< 200 ft
Symbols :   Thunderstorms  Fog  Heavy snow  Heavy precipitations  Wind > 20 kt
SIGMETs :     Misc.  Thunderstorms  Icing  Turbulence  Mountain Waves  Volcanic Ashes






- Airport Elevation : -15 ft
- IATA code : RTM


EHRD - Rotterdam Zestienhoven

CURRENT METAR :
  • 201425Z AUTO 09005KT 9999 NSC 06/03 Q1015 NOSIG

EXPIRED METARs :
  • 201355Z AUTO 10006KT 070V130 9999 NSC 06/02 Q1016 NOSIG
  • 201325Z AUTO 09006KT 070V130 9999 NSC 06/02 Q1016 NOSIG
  • 201255Z AUTO 09005KT 040V140 9999 NSC 06/02 Q1017 NOSIG
  • 201225Z AUTO 08006KT 9999 NSC 06/02 Q1017 NOSIG
  • 201155Z AUTO 13006KT 100V170 9999 NSC 06/02 Q1017 NOSIG

TAF TAF EHRD
Valid from the 20 at 12:00 until the 21 at 18:00 UTC


201115Z 2012/2118 12006KT CAVOK
BECMG 2017/2020 2500 BR BKN003
BECMG 2103/2106 4000 BKN007
BECMG 2107/2110 9999 NSW SCT012



MET'MAP, your aeronautical weather chart ! - Copyright ORBIFLY December 2007 - Disclaimer

ORBIFLY MET'MAP TEAM :

Programming & Development : Alexandra Zaïnal
Concept & Development : Baudouin d'Aumeries
Co-Development & Prog : Marc-Olivier Méhu
Technical & hardware support : Manuel Goepfert

Contact : metmap@orbifly.com




SOURCES & CREDITS :

   NOAA